createdAt,value
2018-03-07T00:00:31.246Z,1.89
2018-03-07T00:03:00.323Z,1.83
2018-03-07T00:05:28.684Z,1.87
2018-03-07T00:07:57.037Z,1.95
2018-03-07T00:10:26.128Z,1.94
2018-03-07T00:12:54.435Z,1.88
2018-03-07T00:15:22.781Z,1.92
2018-03-07T00:17:51.087Z,1.99
2018-03-07T00:20:19.447Z,1.93
2018-03-07T00:22:47.785Z,1.87
2018-03-07T00:25:16.896Z,1.85
2018-03-07T00:27:45.632Z,1.83
2018-03-07T00:30:13.970Z,1.85
2018-03-07T00:32:42.294Z,1.85
2018-03-07T00:35:10.623Z,1.91
2018-03-07T00:37:39.384Z,1.95
2018-03-07T00:40:08.473Z,1.96
2018-03-07T00:42:37.585Z,2.08
2018-03-07T00:45:05.933Z,2.13
2018-03-07T00:47:35.055Z,2.20
2018-03-07T00:50:03.374Z,2.26
2018-03-07T00:52:31.692Z,2.30
2018-03-07T00:55:01.188Z,2.35
2018-03-07T00:57:31.053Z,2.37
2018-03-07T00:59:59.354Z,2.36
2018-03-07T01:02:27.681Z,2.45
2018-03-07T01:04:56.041Z,2.52
2018-03-07T01:07:25.124Z,2.43
2018-03-07T01:09:53.873Z,2.39
2018-03-07T01:12:22.197Z,2.39
2018-03-07T01:14:51.282Z,2.46
2018-03-07T01:17:19.646Z,2.19
2018-03-07T01:19:47.964Z,2.23
2018-03-07T01:22:16.305Z,2.06
2018-03-07T01:24:45.020Z,2.06
2018-03-07T01:27:14.129Z,2.20
2018-03-07T01:29:42.858Z,2.26
2018-03-07T01:32:11.225Z,2.28
2018-03-07T01:34:39.544Z,2.35
2018-03-07T01:37:08.628Z,2.49
2018-03-07T01:39:36.989Z,2.54
2018-03-07T01:42:05.300Z,2.55
2018-03-07T01:44:34.424Z,2.58
2018-03-07T01:47:02.722Z,2.59
2018-03-07T01:49:31.074Z,2.60
2018-03-07T01:52:02.342Z,2.58
2018-03-07T01:54:30.702Z,2.60
2018-03-07T01:56:59.019Z,2.59
2018-03-07T01:59:27.332Z,2.57
2018-03-07T02:01:56.431Z,2.58
2018-03-07T02:04:24.784Z,2.61
2018-03-07T02:06:53.109Z,2.61
2018-03-07T02:09:21.482Z,2.63
2018-03-07T02:11:49.805Z,2.60
2018-03-07T02:14:18.127Z,2.59
2018-03-07T02:16:46.469Z,2.61
2018-03-07T02:19:14.803Z,2.57
2018-03-07T02:21:43.143Z,2.56
2018-03-07T02:24:12.220Z,2.59
2018-03-07T02:26:40.587Z,2.60
2018-03-07T02:29:08.936Z,2.60
2018-03-07T02:31:37.247Z,2.60
2018-03-07T02:34:05.579Z,2.61
2018-03-07T02:36:34.714Z,2.60
2018-03-07T02:39:03.035Z,2.57
2018-03-07T02:41:31.363Z,2.56
2018-03-07T02:43:59.723Z,2.56
2018-03-07T02:46:28.042Z,2.58
2018-03-07T02:48:57.118Z,2.65
2018-03-07T02:51:25.462Z,2.64
2018-03-07T02:53:53.843Z,2.65
2018-03-07T02:56:22.910Z,2.64
2018-03-07T02:58:51.216Z,2.61
2018-03-07T03:01:19.523Z,2.58
2018-03-07T03:03:47.882Z,2.56
2018-03-07T03:06:16.195Z,2.59
2018-03-07T03:08:45.302Z,2.63
2018-03-07T03:11:13.650Z,2.60
2018-03-07T03:13:41.941Z,2.62
2018-03-07T03:16:11.041Z,2.58
2018-03-07T03:18:40.104Z,2.57
2018-03-07T03:21:08.437Z,2.53
2018-03-07T03:23:36.757Z,2.56
2018-03-07T03:26:05.062Z,2.53
2018-03-07T03:28:33.386Z,2.50
2018-03-07T03:31:01.738Z,2.53
2018-03-07T03:33:30.081Z,2.55
2018-03-07T03:35:58.426Z,2.46
2018-03-07T03:38:26.741Z,2.43
2018-03-07T03:40:55.085Z,2.51
2018-03-07T03:43:23.399Z,2.54
2018-03-07T03:45:51.717Z,2.55
2018-03-07T03:48:20.075Z,2.51
2018-03-07T03:50:48.384Z,2.44
2018-03-07T03:53:16.738Z,2.35
2018-03-07T03:55:45.057Z,2.39
2018-03-07T03:58:13.402Z,2.46
2018-03-07T04:00:41.717Z,2.46
2018-03-07T04:03:10.063Z,2.48
2018-03-07T04:05:38.364Z,2.52
2018-03-07T04:08:06.726Z,2.56
2018-03-07T04:10:35.074Z,2.59
2018-03-07T04:13:03.430Z,2.52
2018-03-07T04:15:32.510Z,2.48
2018-03-07T04:18:00.860Z,2.54
2018-03-07T04:20:29.179Z,2.57
2018-03-07T04:22:58.254Z,2.60
2018-03-07T04:25:26.601Z,2.65
2018-03-07T04:27:54.918Z,2.63
2018-03-07T04:30:23.257Z,2.63
2018-03-07T04:32:51.561Z,2.52
2018-03-07T04:35:19.907Z,2.50
2018-03-07T04:37:48.258Z,2.40
2018-03-07T04:40:16.568Z,2.41
2018-03-07T04:42:44.910Z,2.36
2018-03-07T04:45:13.306Z,2.36
2018-03-07T04:47:41.620Z,2.43
2018-03-07T04:50:09.935Z,2.43
2018-03-07T04:52:39.058Z,2.49
2018-03-07T04:55:07.374Z,2.43
2018-03-07T04:57:35.684Z,2.36
2018-03-07T05:00:04.798Z,2.24
2018-03-07T05:02:33.124Z,2.25
2018-03-07T05:05:01.537Z,2.23
2018-03-07T05:07:30.104Z,2.24
2018-03-07T05:09:59.178Z,2.29
2018-03-07T05:12:27.518Z,2.27
2018-03-07T05:14:56.634Z,2.33
2018-03-07T05:17:24.942Z,2.37
2018-03-07T05:19:54.020Z,2.32
2018-03-07T05:22:22.362Z,2.36
2018-03-07T05:24:50.672Z,2.38
2018-03-07T05:27:19.010Z,2.38
2018-03-07T05:29:47.328Z,2.40
2018-03-07T05:32:15.674Z,2.42
2018-03-07T05:34:43.992Z,2.40
2018-03-07T05:37:12.350Z,2.39
2018-03-07T05:39:40.717Z,2.40
2018-03-07T05:42:09.035Z,2.41
2018-03-07T05:44:38.114Z,2.47
2018-03-07T05:47:06.453Z,2.39
2018-03-07T05:49:34.756Z,2.35
2018-03-07T05:52:03.110Z,2.38
2018-03-07T05:54:31.419Z,2.38
2018-03-07T05:56:59.776Z,2.33
2018-03-07T05:59:28.132Z,2.36
2018-03-07T06:01:57.209Z,2.35
2018-03-07T06:04:25.538Z,2.26
2018-03-07T06:06:53.880Z,2.32
2018-03-07T06:09:22.205Z,2.39
2018-03-07T06:11:50.561Z,2.44
2018-03-07T06:14:18.872Z,2.49
2018-03-07T06:16:47.949Z,2.45
2018-03-07T06:19:16.288Z,2.54
2018-03-07T06:21:45.375Z,2.56
2018-03-07T06:24:13.909Z,2.57
2018-03-07T06:26:42.255Z,2.60
2018-03-07T06:29:10.566Z,2.61
2018-03-07T06:31:38.929Z,2.61
2018-03-07T06:34:07.252Z,2.62
2018-03-07T06:36:35.596Z,2.66
2018-03-07T06:39:03.961Z,2.63
2018-03-07T06:41:32.280Z,2.71
2018-03-07T06:44:01.354Z,2.75
2018-03-07T06:46:29.710Z,2.70
2018-03-07T06:48:58.069Z,2.78
2018-03-07T06:51:26.375Z,2.74
2018-03-07T06:53:54.721Z,2.72
2018-03-07T06:56:23.030Z,2.72
2018-03-07T06:58:51.382Z,2.61
2018-03-07T07:01:20.567Z,2.63
2018-03-07T07:03:48.922Z,2.58
2018-03-07T07:06:17.245Z,2.64
2018-03-07T07:08:45.598Z,2.70
2018-03-07T07:11:13.903Z,2.67
2018-03-07T07:13:42.249Z,2.66
2018-03-07T07:16:11.362Z,2.85
2018-03-07T07:18:39.681Z,2.87
2018-03-07T07:21:09.159Z,2.80
2018-03-07T07:23:37.544Z,2.75
2018-03-07T07:26:05.895Z,2.88
2018-03-07T07:28:34.196Z,3.04
2018-03-07T07:31:02.501Z,3.01
2018-03-07T07:33:30.837Z,3.13
2018-03-07T07:35:59.144Z,3.14
2018-03-07T07:38:28.241Z,3.14
2018-03-07T07:40:56.553Z,2.95
2018-03-07T07:43:24.977Z,3.00
2018-03-07T07:45:53.269Z,3.02
2018-03-07T07:48:22.382Z,3.11
2018-03-07T07:50:51.464Z,3.21
2018-03-07T07:53:20.568Z,3.07
2018-03-07T07:55:49.639Z,3.26
2018-03-07T07:58:18.381Z,3.19
2018-03-07T08:00:46.721Z,3.11
2018-03-07T08:03:16.546Z,3.24
2018-03-07T08:05:44.899Z,3.14
2018-03-07T08:08:13.216Z,3.10
2018-03-07T08:10:41.530Z,3.09
2018-03-07T08:13:09.869Z,3.04
2018-03-07T08:15:38.209Z,3.07
2018-03-07T08:18:06.593Z,2.91
2018-03-07T08:20:35.727Z,2.99
2018-03-07T08:23:04.049Z,3.15
2018-03-07T08:25:32.396Z,3.04
2018-03-07T08:28:00.704Z,3.21
2018-03-07T08:30:29.041Z,3.10
2018-03-07T08:32:57.348Z,3.09
2018-03-07T08:35:25.678Z,3.01
2018-03-07T08:37:54.004Z,3.00
2018-03-07T08:40:22.309Z,2.96
2018-03-07T08:42:51.398Z,3.26
2018-03-07T08:45:20.456Z,3.34
2018-03-07T08:47:48.795Z,3.17
2018-03-07T08:50:17.112Z,3.26
2018-03-07T08:52:45.461Z,3.22
2018-03-07T08:55:13.782Z,3.14
2018-03-07T08:57:42.079Z,3.02
2018-03-07T09:00:11.612Z,3.20
2018-03-07T09:02:39.933Z,3.28
2018-03-07T09:05:08.262Z,3.37
2018-03-07T09:07:36.611Z,3.22
2018-03-07T09:10:04.925Z,3.36
2018-03-07T09:12:33.289Z,3.38
2018-03-07T09:15:01.613Z,3.47
2018-03-07T09:17:29.969Z,3.44
2018-03-07T09:19:58.292Z,3.50
2018-03-07T09:22:26.619Z,3.55
2018-03-07T09:24:54.911Z,3.60
2018-03-07T09:27:23.224Z,3.64
2018-03-07T09:29:51.801Z,3.72
2018-03-07T09:32:20.113Z,4.19
2018-03-07T09:34:48.456Z,4.09
2018-03-07T09:37:16.779Z,3.94
2018-03-07T09:39:45.115Z,4.28
2018-03-07T09:42:13.445Z,4.25
2018-03-07T09:44:41.743Z,4.45
2018-03-07T09:47:10.261Z,4.17
2018-03-07T09:49:38.624Z,4.20
2018-03-07T09:52:06.942Z,4.47
2018-03-07T09:54:35.266Z,4.38
2018-03-07T09:57:03.626Z,4.49
2018-03-07T09:59:31.954Z,4.11
2018-03-07T10:02:00.329Z,4.09
2018-03-07T10:04:28.625Z,4.00
2018-03-07T10:06:56.978Z,4.24
2018-03-07T10:09:26.064Z,4.51
2018-03-07T10:11:54.427Z,4.91
2018-03-07T10:14:22.759Z,5.02
2018-03-07T10:16:51.125Z,4.74
2018-03-07T10:19:19.463Z,4.83
2018-03-07T10:21:47.781Z,5.15
2018-03-07T10:24:16.147Z,4.98
2018-03-07T10:26:44.484Z,5.30
2018-03-07T10:29:12.831Z,5.68
2018-03-07T10:31:41.148Z,5.06
2018-03-07T10:34:09.504Z,5.26
2018-03-07T10:36:37.832Z,5.14
2018-03-07T10:39:06.946Z,5.13
2018-03-07T10:41:35.275Z,5.21
2018-03-07T10:44:03.641Z,5.24
2018-03-07T10:46:31.958Z,5.52
2018-03-07T10:49:00.322Z,5.34
2018-03-07T10:51:28.653Z,5.10
2018-03-07T10:53:57.045Z,5.36
2018-03-07T10:56:25.387Z,5.65
2018-03-07T10:58:53.721Z,5.76
2018-03-07T11:01:22.132Z,5.64
2018-03-07T11:03:50.472Z,5.76
2018-03-07T11:06:18.847Z,5.79
2018-03-07T11:08:47.154Z,5.99
2018-03-07T11:11:15.496Z,5.97
2018-03-07T11:13:43.860Z,6.05
2018-03-07T11:16:12.220Z,5.61
2018-03-07T11:18:40.518Z,5.80
2018-03-07T11:21:08.833Z,5.69
2018-03-07T11:23:37.958Z,5.53
2018-03-07T11:26:06.291Z,5.87
2018-03-07T11:28:34.644Z,5.90
2018-03-07T11:31:02.950Z,5.82
2018-03-07T11:33:31.304Z,5.50
2018-03-07T11:35:59.609Z,5.46
2018-03-07T11:38:27.967Z,5.34
2018-03-07T11:40:56.278Z,5.81
2018-03-07T11:43:25.376Z,5.28
2018-03-07T11:45:54.491Z,5.08
2018-03-07T11:48:22.793Z,4.57
2018-03-07T11:50:51.132Z,4.56
2018-03-07T11:53:19.443Z,4.71
2018-03-07T11:55:47.781Z,4.89
2018-03-07T11:58:16.107Z,5.45
2018-03-07T12:00:44.479Z,5.35
2018-03-07T12:03:12.791Z,5.40
2018-03-07T12:05:41.915Z,5.56
2018-03-07T12:08:10.231Z,6.05
2018-03-07T12:10:39.511Z,6.46
2018-03-07T12:13:07.829Z,6.35
2018-03-07T12:15:36.161Z,6.01
2018-03-07T12:18:04.471Z,5.78
2018-03-07T12:20:32.821Z,5.87
2018-03-07T12:23:01.135Z,5.44
2018-03-07T12:25:29.439Z,5.55
2018-03-07T12:27:58.551Z,5.51
2018-03-07T12:30:26.850Z,6.13
2018-03-07T12:32:55.224Z,6.46
2018-03-07T12:35:23.570Z,6.21
2018-03-07T12:37:51.921Z,6.88
2018-03-07T12:40:20.225Z,7.37
2018-03-07T12:42:49.334Z,7.25
2018-03-07T12:45:17.655Z,6.97
2018-03-07T12:47:46.003Z,6.66
2018-03-07T12:50:14.338Z,6.94
2018-03-07T12:52:43.429Z,6.61
2018-03-07T12:55:11.770Z,6.22
2018-03-07T12:57:40.080Z,5.75
2018-03-07T13:00:08.439Z,5.93
2018-03-07T13:02:36.787Z,5.77
2018-03-07T13:05:05.137Z,5.65
2018-03-07T13:07:33.506Z,5.95
2018-03-07T13:10:02.226Z,6.04
2018-03-07T13:12:30.550Z,5.86
2018-03-07T13:14:59.283Z,5.90
2018-03-07T13:17:27.599Z,6.11
2018-03-07T13:19:56.349Z,5.89
2018-03-07T13:22:24.670Z,5.76
2018-03-07T13:24:53.381Z,5.46
2018-03-07T13:27:22.487Z,5.19
2018-03-07T13:29:50.806Z,4.90
2018-03-07T13:32:19.150Z,4.73
2018-03-07T13:34:47.493Z,4.91
2018-03-07T13:37:15.822Z,4.94
2018-03-07T13:39:44.161Z,4.94
2018-03-07T13:42:13.243Z,4.89
2018-03-07T13:44:41.605Z,5.15
2018-03-07T13:47:09.919Z,5.39
2018-03-07T13:49:39.019Z,5.66
2018-03-07T13:52:07.379Z,5.40
2018-03-07T13:54:36.452Z,5.34
2018-03-07T13:57:04.777Z,5.44
2018-03-07T13:59:33.102Z,5.47
2018-03-07T14:02:01.464Z,5.43
2018-03-07T14:04:29.794Z,5.75
2018-03-07T14:06:58.901Z,5.58
2018-03-07T14:09:27.262Z,5.52
2018-03-07T14:11:56.394Z,5.65
2018-03-07T14:14:24.704Z,5.56
2018-03-07T14:16:53.026Z,5.74
2018-03-07T14:19:21.368Z,6.03
2018-03-07T14:21:49.686Z,5.99
2018-03-07T14:24:18.035Z,6.05
2018-03-07T14:26:47.138Z,5.99
2018-03-07T14:29:15.483Z,5.91
2018-03-07T14:31:43.790Z,5.64
2018-03-07T14:34:12.918Z,5.30
2018-03-07T14:36:41.243Z,5.31
2018-03-07T14:39:09.569Z,5.48
2018-03-07T14:41:37.916Z,5.20
2018-03-07T14:44:07.014Z,5.24
2018-03-07T14:46:36.142Z,5.13
2018-03-07T14:49:04.458Z,5.23
2018-03-07T14:51:32.796Z,5.43
2018-03-07T14:54:01.165Z,5.53
2018-03-07T14:56:30.250Z,5.39
2018-03-07T14:58:58.588Z,5.41
2018-03-07T15:01:26.942Z,5.45
2018-03-07T15:03:55.267Z,5.54
2018-03-07T15:06:24.350Z,5.66
2018-03-07T15:08:52.747Z,5.64
2018-03-07T15:11:21.876Z,6.00
2018-03-07T15:13:50.185Z,6.06
2018-03-07T15:16:18.534Z,6.00
2018-03-07T15:18:46.872Z,5.91
2018-03-07T15:21:15.500Z,5.93
2018-03-07T15:23:43.844Z,6.15
2018-03-07T15:26:12.199Z,6.09
2018-03-07T15:28:41.316Z,6.01
2018-03-07T15:31:09.698Z,6.13
2018-03-07T15:33:38.021Z,6.14
2018-03-07T15:36:06.361Z,6.13
2018-03-07T15:38:34.681Z,5.87
2018-03-07T15:41:03.036Z,5.79
2018-03-07T15:43:31.337Z,5.75
2018-03-07T15:45:59.715Z,5.69
2018-03-07T15:48:28.030Z,5.89
2018-03-07T15:50:56.347Z,5.59
2018-03-07T15:53:24.681Z,5.49
2018-03-07T15:55:52.992Z,5.31
2018-03-07T15:58:21.326Z,5.23
2018-03-07T16:00:50.785Z,5.35
2018-03-07T16:03:19.141Z,5.24
2018-03-07T16:05:47.537Z,5.14
2018-03-07T16:08:15.894Z,5.08
2018-03-07T16:10:44.251Z,4.96
2018-03-07T16:13:12.555Z,4.92
2018-03-07T16:15:40.879Z,4.88
2018-03-07T16:18:09.234Z,4.76
2018-03-07T16:20:37.594Z,4.80
2018-03-07T16:23:05.915Z,4.74
2018-03-07T16:25:34.285Z,4.71
2018-03-07T16:28:02.588Z,4.61
2018-03-07T16:30:31.663Z,4.65
2018-03-07T16:33:00.786Z,4.69
2018-03-07T16:35:29.903Z,4.65
2018-03-07T16:37:58.204Z,4.68
2018-03-07T16:40:26.549Z,4.58
2018-03-07T16:42:54.873Z,4.49
2018-03-07T16:45:24.846Z,4.50
2018-03-07T16:47:53.290Z,4.55
2018-03-07T16:50:22.388Z,4.59
2018-03-07T16:52:51.489Z,4.56
2018-03-07T16:55:21.168Z,4.61
2018-03-07T16:57:49.497Z,4.52
2018-03-07T17:00:17.826Z,4.46
2018-03-07T17:02:46.160Z,4.37
2018-03-07T17:05:15.295Z,4.41
2018-03-07T17:07:43.643Z,4.46
2018-03-07T17:10:12.017Z,4.32
2018-03-07T17:12:41.099Z,4.43
2018-03-07T17:15:09.400Z,4.45
2018-03-07T17:17:37.762Z,4.46
2018-03-07T17:20:06.141Z,4.49
2018-03-07T17:22:34.464Z,4.42
2018-03-07T17:25:02.769Z,4.42
2018-03-07T17:27:31.120Z,4.49
2018-03-07T17:29:59.442Z,4.50
2018-03-07T17:32:27.785Z,4.43
2018-03-07T17:34:56.945Z,4.40
2018-03-07T17:37:25.272Z,4.37
2018-03-07T17:39:54.397Z,4.26
2018-03-07T17:42:22.794Z,4.34
2018-03-07T17:44:51.512Z,4.32
2018-03-07T17:47:19.884Z,4.39
2018-03-07T17:49:49.315Z,4.35
2018-03-07T17:52:19.130Z,4.31
2018-03-07T17:54:47.465Z,4.41
2018-03-07T17:57:16.217Z,4.32
2018-03-07T17:59:44.544Z,4.34
2018-03-07T18:02:13.416Z,4.30
2018-03-07T18:04:42.540Z,4.25
2018-03-07T18:07:11.875Z,4.27
2018-03-07T18:09:40.224Z,4.30
2018-03-07T18:12:09.348Z,4.29
2018-03-07T18:14:38.564Z,4.26
2018-03-07T18:17:06.950Z,4.37
2018-03-07T18:19:35.279Z,4.13
2018-03-07T18:22:05.232Z,4.34
2018-03-07T18:24:33.603Z,4.31
2018-03-07T18:27:01.977Z,4.41
2018-03-07T18:29:30.302Z,4.42
2018-03-07T18:31:58.658Z,4.45
2018-03-07T18:34:26.994Z,4.45
2018-03-07T18:36:55.344Z,4.40
2018-03-07T18:39:24.440Z,4.39
2018-03-07T18:41:53.559Z,4.40
2018-03-07T18:44:21.885Z,4.19
2018-03-07T18:46:50.280Z,4.20
2018-03-07T18:49:18.604Z,4.23
2018-03-07T18:51:47.849Z,4.32
2018-03-07T18:54:17.004Z,4.32
2018-03-07T18:56:46.199Z,4.32
2018-03-07T18:59:14.740Z,4.23
2018-03-07T19:01:43.088Z,4.24
2018-03-07T19:04:11.460Z,4.32
2018-03-07T19:06:41.506Z,4.28
2018-03-07T19:09:10.142Z,4.27
2018-03-07T19:11:38.503Z,4.37
2018-03-07T19:14:06.857Z,4.32
2018-03-07T19:16:35.944Z,4.37
2018-03-07T19:19:04.272Z,4.30
2018-03-07T19:21:32.598Z,4.25
2018-03-07T19:24:02.121Z,4.23
2018-03-07T19:26:31.197Z,4.11
2018-03-07T19:28:59.542Z,3.98
2018-03-07T19:31:28.244Z,3.97
2018-03-07T19:33:56.594Z,3.97
2018-03-07T19:36:24.951Z,3.97
2018-03-07T19:38:53.904Z,3.96
2018-03-07T19:41:23.050Z,3.99
2018-03-07T19:43:51.439Z,3.93
2018-03-07T19:46:19.807Z,3.98
2018-03-07T19:48:48.155Z,4.04
2018-03-07T19:51:16.532Z,4.02
2018-03-07T19:53:45.657Z,4.05
2018-03-07T19:56:14.024Z,4.03
2018-03-07T19:58:42.387Z,3.98
2018-03-07T20:01:10.722Z,4.01
2018-03-07T20:03:39.151Z,4.03
2018-03-07T20:06:07.527Z,4.04
2018-03-07T20:08:35.864Z,4.05
2018-03-07T20:11:04.230Z,4.05
2018-03-07T20:13:32.649Z,4.02
2018-03-07T20:16:01.771Z,4.05
2018-03-07T20:18:30.118Z,4.06
2018-03-07T20:20:59.278Z,4.01
2018-03-07T20:23:27.939Z,4.03
2018-03-07T20:25:56.351Z,4.04
2018-03-07T20:28:24.709Z,4.04
2018-03-07T20:30:53.107Z,4.09
2018-03-07T20:33:21.424Z,4.15
2018-03-07T20:35:49.804Z,4.18
2018-03-07T20:38:18.157Z,4.19
2018-03-07T20:40:46.511Z,4.18
2018-03-07T20:43:14.918Z,4.23
2018-03-07T20:45:44.382Z,4.19
2018-03-07T20:48:12.752Z,4.12
2018-03-07T20:50:41.763Z,4.13
2018-03-07T20:53:10.835Z,4.07
2018-03-07T20:55:39.209Z,4.05
2018-03-07T20:58:07.563Z,4.09
2018-03-07T21:00:35.899Z,4.13
2018-03-07T21:03:04.280Z,4.16
2018-03-07T21:05:32.611Z,4.16
2018-03-07T21:08:00.948Z,4.23
2018-03-07T21:10:29.342Z,4.21
2018-03-07T21:12:57.674Z,4.10
2018-03-07T21:15:25.978Z,3.96
2018-03-07T21:17:55.423Z,3.92
2018-03-07T21:20:23.753Z,3.96
2018-03-07T21:22:52.920Z,3.94
2018-03-07T21:25:21.301Z,3.86
2018-03-07T21:27:49.675Z,3.79
2018-03-07T21:30:18.046Z,3.74
2018-03-07T21:32:46.408Z,3.75
2018-03-07T21:35:14.743Z,3.80
2018-03-07T21:37:43.129Z,3.77
2018-03-07T21:40:12.300Z,3.71
2018-03-07T21:42:40.628Z,3.56
2018-03-07T21:45:09.047Z,3.48
2018-03-07T21:47:37.474Z,3.56
2018-03-07T21:50:05.798Z,3.57
2018-03-07T21:52:34.114Z,3.59
2018-03-07T21:55:02.475Z,3.54
2018-03-07T21:57:30.794Z,3.58
2018-03-07T21:59:59.162Z,3.61
2018-03-07T22:02:28.240Z,3.60
2018-03-07T22:04:57.359Z,3.66
2018-03-07T22:07:25.745Z,3.74
2018-03-07T22:09:54.060Z,3.79
2018-03-07T22:12:22.413Z,3.82
2018-03-07T22:14:50.734Z,3.93
2018-03-07T22:17:19.081Z,3.98
2018-03-07T22:19:47.406Z,4.07
2018-03-07T22:22:16.559Z,4.13
2018-03-07T22:24:44.878Z,4.13
2018-03-07T22:27:13.966Z,4.03
2018-03-07T22:29:42.334Z,4.10
2018-03-07T22:32:10.707Z,4.07
2018-03-07T22:34:39.066Z,4.03
2018-03-07T22:37:07.382Z,4.03
2018-03-07T22:39:36.527Z,4.09
2018-03-07T22:42:04.848Z,3.95
2018-03-07T22:44:33.198Z,3.92
2018-03-07T22:47:01.534Z,3.92
2018-03-07T22:49:29.895Z,3.83
2018-03-07T22:51:58.996Z,3.69
2018-03-07T22:54:27.367Z,3.67
2018-03-07T22:56:56.436Z,3.65
2018-03-07T22:59:24.810Z,3.60
2018-03-07T23:01:53.151Z,3.57
2018-03-07T23:04:21.503Z,3.49
2018-03-07T23:06:50.574Z,3.42
2018-03-07T23:09:19.685Z,3.39
2018-03-07T23:11:48.037Z,3.32
2018-03-07T23:14:16.406Z,3.22
2018-03-07T23:16:44.742Z,3.13
2018-03-07T23:19:13.071Z,2.99
2018-03-07T23:21:41.484Z,2.76
2018-03-07T23:24:09.781Z,2.56
2018-03-07T23:26:38.246Z,2.38
2018-03-07T23:29:06.582Z,2.25
2018-03-07T23:31:34.919Z,2.13
2018-03-07T23:34:03.282Z,2.01
2018-03-07T23:36:31.605Z,1.93
2018-03-07T23:38:59.925Z,1.82
2018-03-07T23:41:29.059Z,1.77
2018-03-07T23:43:57.499Z,1.69
2018-03-07T23:46:26.576Z,1.69
2018-03-07T23:48:54.903Z,1.58
2018-03-07T23:51:24.030Z,1.60
2018-03-07T23:53:52.392Z,1.54
2018-03-07T23:56:20.756Z,1.52
2018-03-07T23:58:49.057Z,1.51
